sensor_id;sensor_type;location;lat;lon;timestamp;pressure;altitude;pressure_sealevel;temperature;humidity
3812;BME280;1921;49.368;11.068;2023-11-21T00:00:19;97093.19;;;8.73;100.00
3812;BME280;1921;49.368;11.068;2023-11-21T00:02:46;97082.78;;;8.73;100.00
3812;BME280;1921;49.368;11.068;2023-11-21T00:05:14;97087.75;;;8.82;100.00
3812;BME280;1921;49.368;11.068;2023-11-21T00:07:41;97072.06;;;8.76;100.00
3812;BME280;1921;49.368;11.068;2023-11-21T00:10:08;97089.44;;;8.90;100.00
3812;BME280;1921;49.368;11.068;2023-11-21T00:12:35;97043.00;;;8.57;100.00
3812;BME280;1921;49.368;11.068;2023-11-21T00:15:01;97101.66;;;8.89;100.00
3812;BME280;1921;49.368;11.068;2023-11-21T00:17:28;97064.50;;;8.66;100.00
3812;BME280;1921;49.368;11.068;2023-11-21T00:19:53;97065.31;;;8.67;100.00
3812;BME280;1921;49.368;11.068;2023-11-21T00:22:20;97051.59;;;8.58;100.00
3812;BME280;1921;49.368;11.068;2023-11-21T00:24:46;97084.22;;;8.75;100.00
3812;BME280;1921;49.368;11.068;2023-11-21T00:27:13;97082.28;;;8.77;100.00
3812;BME280;1921;49.368;11.068;2023-11-21T00:29:40;97070.97;;;8.70;100.00
3812;BME280;1921;49.368;11.068;2023-11-21T00:32:06;97057.88;;;8.63;100.00
3812;BME280;1921;49.368;11.068;2023-11-21T00:34:32;97076.25;;;8.62;100.00
3812;BME280;1921;49.368;11.068;2023-11-21T00:36:59;97072.41;;;8.73;100.00
3812;BME280;1921;49.368;11.068;2023-11-21T00:39:24;97037.59;;;8.44;100.00
3812;BME280;1921;49.368;11.068;2023-11-21T00:41:52;97072.13;;;8.68;100.00
3812;BME280;1921;49.368;11.068;2023-11-21T00:44:18;97094.38;;;8.85;100.00
3812;BME280;1921;49.368;11.068;2023-11-21T00:46:44;97113.66;;;8.90;100.00
3812;BME280;1921;49.368;11.068;2023-11-21T00:49:09;97051.84;;;8.63;100.00
3812;BME280;1921;49.368;11.068;2023-11-21T00:51:35;97085.50;;;8.79;100.00
3812;BME280;1921;49.368;11.068;2023-11-21T00:54:01;97035.28;;;8.49;100.00
3812;BME280;1921;49.368;11.068;2023-11-21T00:56:28;97074.63;;;8.61;100.00
3812;BME280;1921;49.368;11.068;2023-11-21T00:58:53;97062.00;;;8.58;100.00
3812;BME280;1921;49.368;11.068;2023-11-21T01:01:20;97065.03;;;8.61;100.00
3812;BME280;1921;49.368;11.068;2023-11-21T01:03:48;97085.75;;;8.84;100.00
3812;BME280;1921;49.368;11.068;2023-11-21T01:06:15;97096.44;;;8.89;100.00
3812;BME280;1921;49.368;11.068;2023-11-21T01:08:41;97075.81;;;8.73;100.00
3812;BME280;1921;49.368;11.068;2023-11-21T01:11:06;97056.97;;;8.56;100.00
3812;BME280;1921;49.368;11.068;2023-11-21T01:13:38;97110.16;;;8.83;100.00
3812;BME280;1921;49.368;11.068;2023-11-21T01:16:05;97067.44;;;8.63;100.00
3812;BME280;1921;49.368;11.068;2023-11-21T01:18:32;97067.34;;;8.56;100.00
3812;BME280;1921;49.368;11.068;2023-11-21T01:20:58;97031.84;;;8.34;100.00
3812;BME280;1921;49.368;11.068;2023-11-21T01:23:26;97111.47;;;8.65;100.00
3812;BME280;1921;49.368;11.068;2023-11-21T01:25:53;97068.63;;;8.46;100.00
3812;BME280;1921;49.368;11.068;2023-11-21T01:28:18;97107.72;;;8.67;100.00
3812;BME280;1921;49.368;11.068;2023-11-21T01:30:45;97101.28;;;8.78;100.00
3812;BME280;1921;49.368;11.068;2023-11-21T01:33:11;97084.03;;;8.62;100.00
3812;BME280;1921;49.368;11.068;2023-11-21T01:35:37;97102.41;;;8.75;100.00
3812;BME280;1921;49.368;11.068;2023-11-21T01:38:03;97051.47;;;8.36;100.00
3812;BME280;1921;49.368;11.068;2023-11-21T01:40:29;97094.38;;;8.70;100.00
3812;BME280;1921;49.368;11.068;2023-11-21T01:42:56;97109.97;;;8.85;100.00
3812;BME280;1921;49.368;11.068;2023-11-21T01:45:23;97059.75;;;8.55;100.00
3812;BME280;1921;49.368;11.068;2023-11-21T01:47:50;97078.78;;;8.70;100.00
3812;BME280;1921;49.368;11.068;2023-11-21T01:50:17;97065.84;;;8.62;100.00
3812;BME280;1921;49.368;11.068;2023-11-21T01:52:47;97090.41;;;8.74;100.00
3812;BME280;1921;49.368;11.068;2023-11-21T01:55:15;97036.69;;;8.37;100.00
3812;BME280;1921;49.368;11.068;2023-11-21T01:57:43;97068.72;;;8.67;100.00
3812;BME280;1921;49.368;11.068;2023-11-21T02:00:10;97101.91;;;8.95;100.00
3812;BME280;1921;49.368;11.068;2023-11-21T02:02:48;97059.50;;;8.65;100.00
3812;BME280;1921;49.368;11.068;2023-11-21T02:05:19;97053.56;;;8.56;100.00
3812;BME280;1921;49.368;11.068;2023-11-21T02:07:45;97037.44;;;8.46;100.00
3812;BME280;1921;49.368;11.068;2023-11-21T02:10:14;97091.22;;;8.75;100.00
3812;BME280;1921;49.368;11.068;2023-11-21T02:12:44;97040.28;;;8.51;100.00
3812;BME280;1921;49.368;11.068;2023-11-21T02:15:14;97048.22;;;8.57;100.00
3812;BME280;1921;49.368;11.068;2023-11-21T02:17:47;97090.50;;;8.81;100.00
3812;BME280;1921;49.368;11.068;2023-11-21T02:20:17;96987.53;;;8.13;100.00
3812;BME280;1921;49.368;11.068;2023-11-21T02:22:54;97070.41;;;8.75;100.00
3812;BME280;1921;49.368;11.068;2023-11-21T02:25:27;97115.31;;;8.69;100.00
3812;BME280;1921;49.368;11.068;2023-11-21T02:27:55;97086.47;;;8.78;100.00
3812;BME280;1921;49.368;11.068;2023-11-21T02:30:22;97048.81;;;8.59;100.00
3812;BME280;1921;49.368;11.068;2023-11-21T02:32:48;97055.44;;;8.62;100.00
3812;BME280;1921;49.368;11.068;2023-11-21T02:35:14;97022.84;;;8.45;100.00
3812;BME280;1921;49.368;11.068;2023-11-21T02:37:42;97047.13;;;8.52;100.00
3812;BME280;1921;49.368;11.068;2023-11-21T02:40:11;97025.50;;;8.36;100.00
3812;BME280;1921;49.368;11.068;2023-11-21T02:42:44;97048.72;;;8.53;100.00
3812;BME280;1921;49.368;11.068;2023-11-21T02:45:10;97061.63;;;8.61;100.00
3812;BME280;1921;49.368;11.068;2023-11-21T02:47:38;97052.13;;;8.53;100.00
3812;BME280;1921;49.368;11.068;2023-11-21T02:50:05;97047.94;;;8.52;100.00
3812;BME280;1921;49.368;11.068;2023-11-21T02:52:34;97027.06;;;8.46;100.00
3812;BME280;1921;49.368;11.068;2023-11-21T02:55:01;97020.31;;;8.36;100.00
3812;BME280;1921;49.368;11.068;2023-11-21T02:57:27;97009.25;;;8.34;100.00
3812;BME280;1921;49.368;11.068;2023-11-21T02:59:53;96993.13;;;8.24;100.00
3812;BME280;1921;49.368;11.068;2023-11-21T03:02:18;97021.19;;;8.44;100.00
3812;BME280;1921;49.368;11.068;2023-11-21T03:04:44;97001.47;;;8.34;100.00
3812;BME280;1921;49.368;11.068;2023-11-21T03:07:10;97023.28;;;8.48;100.00
3812;BME280;1921;49.368;11.068;2023-11-21T03:09:36;97036.72;;;8.52;100.00
3812;BME280;1921;49.368;11.068;2023-11-21T03:12:01;97023.81;;;8.44;100.00
3812;BME280;1921;49.368;11.068;2023-11-21T03:14:27;97084.69;;;8.79;100.00
3812;BME280;1921;49.368;11.068;2023-11-21T03:16:53;97084.50;;;8.80;100.00
3812;BME280;1921;49.368;11.068;2023-11-21T03:19:19;97090.69;;;8.79;100.00
3812;BME280;1921;49.368;11.068;2023-11-21T03:21:44;97038.88;;;8.48;100.00
3812;BME280;1921;49.368;11.068;2023-11-21T03:24:10;97091.69;;;8.78;100.00
3812;BME280;1921;49.368;11.068;2023-11-21T03:26:36;97079.22;;;8.74;100.00
3812;BME280;1921;49.368;11.068;2023-11-21T03:29:03;97045.06;;;8.47;100.00
3812;BME280;1921;49.368;11.068;2023-11-21T03:31:30;97023.06;;;8.35;100.00
3812;BME280;1921;49.368;11.068;2023-11-21T03:33:56;96927.56;;;7.70;100.00
3812;BME280;1921;49.368;11.068;2023-11-21T03:36:21;97038.78;;;8.42;100.00
3812;BME280;1921;49.368;11.068;2023-11-21T03:38:48;97037.97;;;8.41;100.00
3812;BME280;1921;49.368;11.068;2023-11-21T03:41:14;97065.69;;;8.63;100.00
3812;BME280;1921;49.368;11.068;2023-11-21T03:43:40;97060.22;;;8.58;100.00
3812;BME280;1921;49.368;11.068;2023-11-21T03:46:06;97004.88;;;8.20;100.00
3812;BME280;1921;49.368;11.068;2023-11-21T03:48:32;96944.28;;;7.90;100.00
3812;BME280;1921;49.368;11.068;2023-11-21T03:50:58;97088.47;;;8.76;100.00
3812;BME280;1921;49.368;11.068;2023-11-21T03:53:24;97051.16;;;8.54;100.00
3812;BME280;1921;49.368;11.068;2023-11-21T03:55:50;97103.16;;;8.84;100.00
3812;BME280;1921;49.368;11.068;2023-11-21T03:58:15;97083.16;;;8.70;100.00
3812;BME280;1921;49.368;11.068;2023-11-21T04:00:41;97054.53;;;8.55;100.00
3812;BME280;1921;49.368;11.068;2023-11-21T04:03:07;97073.34;;;8.57;100.00
3812;BME280;1921;49.368;11.068;2023-11-21T04:05:33;97073.22;;;8.58;100.00
3812;BME280;1921;49.368;11.068;2023-11-21T04:07:58;97077.69;;;8.65;100.00
3812;BME280;1921;49.368;11.068;2023-11-21T04:10:24;97025.84;;;8.33;100.00
3812;BME280;1921;49.368;11.068;2023-11-21T04:12:50;97041.84;;;8.45;100.00
3812;BME280;1921;49.368;11.068;2023-11-21T04:15:15;97068.53;;;8.54;100.00
3812;BME280;1921;49.368;11.068;2023-11-21T04:17:42;97052.38;;;8.44;100.00
3812;BME280;1921;49.368;11.068;2023-11-21T04:20:09;97032.72;;;8.26;100.00
3812;BME280;1921;49.368;11.068;2023-11-21T04:22:42;97010.75;;;8.14;100.00
3812;BME280;1921;49.368;11.068;2023-11-21T04:25:14;97056.91;;;8.27;100.00
3812;BME280;1921;49.368;11.068;2023-11-21T04:27:41;97068.06;;;8.35;100.00
3812;BME280;1921;49.368;11.068;2023-11-21T04:30:10;97051.25;;;8.23;100.00
3812;BME280;1921;49.368;11.068;2023-11-21T04:32:36;97079.88;;;8.38;100.00
3812;BME280;1921;49.368;11.068;2023-11-21T04:35:02;97022.31;;;7.89;100.00
3812;BME280;1921;49.368;11.068;2023-11-21T04:37:29;97044.84;;;8.11;100.00
3812;BME280;1921;49.368;11.068;2023-11-21T04:39:55;97057.44;;;8.22;100.00
3812;BME280;1921;49.368;11.068;2023-11-21T04:42:21;97078.91;;;8.39;100.00
3812;BME280;1921;49.368;11.068;2023-11-21T04:44:47;97062.22;;;8.33;100.00
3812;BME280;1921;49.368;11.068;2023-11-21T04:47:13;97082.41;;;8.46;100.00
3812;BME280;1921;49.368;11.068;2023-11-21T04:49:43;97093.28;;;8.65;100.00
3812;BME280;1921;49.368;11.068;2023-11-21T04:52:09;97057.13;;;8.40;100.00
3812;BME280;1921;49.368;11.068;2023-11-21T04:54:36;97055.06;;;8.35;100.00
3812;BME280;1921;49.368;11.068;2023-11-21T04:57:01;97075.25;;;8.48;100.00
3812;BME280;1921;49.368;11.068;2023-11-21T04:59:27;97081.88;;;8.51;100.00
3812;BME280;1921;49.368;11.068;2023-11-21T05:01:53;97113.53;;;8.69;100.00
3812;BME280;1921;49.368;11.068;2023-11-21T05:04:20;97070.66;;;8.50;100.00
3812;BME280;1921;49.368;11.068;2023-11-21T05:06:48;97069.34;;;8.54;100.00
3812;BME280;1921;49.368;11.068;2023-11-21T05:09:14;97113.91;;;8.81;100.00
3812;BME280;1921;49.368;11.068;2023-11-21T05:11:40;97060.03;;;8.45;100.00
3812;BME280;1921;49.368;11.068;2023-11-21T05:14:06;97068.34;;;8.55;100.00
3812;BME280;1921;49.368;11.068;2023-11-21T05:16:32;97084.22;;;8.60;100.00
3812;BME280;1921;49.368;11.068;2023-11-21T05:18:59;97068.72;;;8.52;100.00
3812;BME280;1921;49.368;11.068;2023-11-21T05:21:27;97121.53;;;8.82;100.00
3812;BME280;1921;49.368;11.068;2023-11-21T05:23:53;97110.69;;;8.79;100.00
3812;BME280;1921;49.368;11.068;2023-11-21T05:26:19;97055.63;;;8.46;100.00
3812;BME280;1921;49.368;11.068;2023-11-21T05:28:44;97075.97;;;8.57;100.00
3812;BME280;1921;49.368;11.068;2023-11-21T05:31:10;97019.88;;;8.10;100.00
3812;BME280;1921;49.368;11.068;2023-11-21T05:33:36;97077.78;;;8.33;100.00
3812;BME280;1921;49.368;11.068;2023-11-21T05:36:03;97051.25;;;8.23;100.00
3812;BME280;1921;49.368;11.068;2023-11-21T05:38:29;97081.94;;;8.43;100.00
3812;BME280;1921;49.368;11.068;2023-11-21T05:40:55;97134.88;;;8.79;100.00
3812;BME280;1921;49.368;11.068;2023-11-21T05:43:20;97112.63;;;8.62;100.00
3812;BME280;1921;49.368;11.068;2023-11-21T05:45:46;97099.44;;;8.49;100.00
3812;BME280;1921;49.368;11.068;2023-11-21T05:48:12;97103.75;;;8.56;100.00
3812;BME280;1921;49.368;11.068;2023-11-21T05:50:38;97088.31;;;8.40;100.00
3812;BME280;1921;49.368;11.068;2023-11-21T05:53:03;97130.41;;;8.73;100.00
3812;BME280;1921;49.368;11.068;2023-11-21T05:55:29;97135.25;;;8.76;100.00
3812;BME280;1921;49.368;11.068;2023-11-21T05:57:55;97149.22;;;8.75;100.00
3812;BME280;1921;49.368;11.068;2023-11-21T06:00:21;97089.78;;;8.34;100.00
3812;BME280;1921;49.368;11.068;2023-11-21T06:02:52;97108.84;;;8.50;100.00
3812;BME280;1921;49.368;11.068;2023-11-21T06:05:21;97103.94;;;8.55;100.00
3812;BME280;1921;49.368;11.068;2023-11-21T06:07:49;97099.25;;;8.50;100.00
3812;BME280;1921;49.368;11.068;2023-11-21T06:10:15;97112.53;;;8.55;100.00
3812;BME280;1921;49.368;11.068;2023-11-21T06:12:43;97167.41;;;8.75;100.00
3812;BME280;1921;49.368;11.068;2023-11-21T06:15:10;97139.28;;;8.64;100.00
3812;BME280;1921;49.368;11.068;2023-11-21T06:17:41;97013.97;;;7.78;100.00
3812;BME280;1921;49.368;11.068;2023-11-21T06:20:09;97110.09;;;8.39;100.00
3812;BME280;1921;49.368;11.068;2023-11-21T06:22:41;97178.56;;;8.84;100.00
3812;BME280;1921;49.368;11.068;2023-11-21T06:25:08;97155.59;;;8.73;100.00
3812;BME280;1921;49.368;11.068;2023-11-21T06:27:41;97176.94;;;8.83;100.00
3812;BME280;1921;49.368;11.068;2023-11-21T06:30:08;97118.78;;;8.46;100.00
3812;BME280;1921;49.368;11.068;2023-11-21T06:32:35;97114.75;;;8.44;100.00
3812;BME280;1921;49.368;11.068;2023-11-21T06:35:03;97113.13;;;8.43;100.00
3812;BME280;1921;49.368;11.068;2023-11-21T06:37:31;97116.25;;;8.38;100.00
3812;BME280;1921;49.368;11.068;2023-11-21T06:39:58;97124.22;;;8.36;100.00
3812;BME280;1921;49.368;11.068;2023-11-21T06:42:25;97163.38;;;8.58;100.00
3812;BME280;1921;49.368;11.068;2023-11-21T06:44:51;97159.78;;;8.59;100.00
3812;BME280;1921;49.368;11.068;2023-11-21T06:47:18;97178.66;;;8.53;100.00
3812;BME280;1921;49.368;11.068;2023-11-21T06:49:45;97149.63;;;8.26;100.00
3812;BME280;1921;49.368;11.068;2023-11-21T06:52:13;97157.34;;;8.34;100.00
3812;BME280;1921;49.368;11.068;2023-11-21T06:54:39;97171.19;;;8.50;100.00
3812;BME280;1921;49.368;11.068;2023-11-21T06:57:05;97172.78;;;8.59;100.00
3812;BME280;1921;49.368;11.068;2023-11-21T06:59:31;97160.66;;;8.51;100.00
3812;BME280;1921;49.368;11.068;2023-11-21T07:01:57;97153.81;;;8.50;100.00
3812;BME280;1921;49.368;11.068;2023-11-21T07:04:23;97161.38;;;8.60;100.00
3812;BME280;1921;49.368;11.068;2023-11-21T07:06:51;97143.59;;;8.49;100.00
3812;BME280;1921;49.368;11.068;2023-11-21T07:09:17;97155.56;;;8.58;100.00
3812;BME280;1921;49.368;11.068;2023-11-21T07:11:43;97155.56;;;8.58;100.00
3812;BME280;1921;49.368;11.068;2023-11-21T07:14:09;97218.25;;;9.01;100.00
3812;BME280;1921;49.368;11.068;2023-11-21T07:16:35;97192.28;;;8.93;100.00
3812;BME280;1921;49.368;11.068;2023-11-21T07:19:04;97206.28;;;9.06;100.00
3812;BME280;1921;49.368;11.068;2023-11-21T07:21:32;97237.16;;;9.09;100.00
3812;BME280;1921;49.368;11.068;2023-11-21T07:24:03;97195.38;;;8.73;100.00
3812;BME280;1921;49.368;11.068;2023-11-21T07:26:30;97175.69;;;8.56;100.00
3812;BME280;1921;49.368;11.068;2023-11-21T07:28:56;97172.88;;;8.66;100.00
3812;BME280;1921;49.368;11.068;2023-11-21T07:31:23;97251.78;;;9.10;100.00
3812;BME280;1921;49.368;11.068;2023-11-21T07:33:50;97236.88;;;9.19;100.00
3812;BME280;1921;49.368;11.068;2023-11-21T07:36:21;97246.69;;;9.17;100.00
3812;BME280;1921;49.368;11.068;2023-11-21T07:38:47;97227.03;;;9.14;100.00
3812;BME280;1921;49.368;11.068;2023-11-21T07:41:13;97207.75;;;9.09;100.00
3812;BME280;1921;49.368;11.068;2023-11-21T07:43:46;97059.03;;;8.23;100.00
3812;BME280;1921;49.368;11.068;2023-11-21T07:46:12;97224.34;;;9.37;100.00
3812;BME280;1921;49.368;11.068;2023-11-21T07:48:43;97219.59;;;9.41;100.00
3812;BME280;1921;49.368;11.068;2023-11-21T07:51:10;97168.81;;;9.15;100.00
3812;BME280;1921;49.368;11.068;2023-11-21T07:53:36;97248.88;;;9.73;100.00
3812;BME280;1921;49.368;11.068;2023-11-21T07:56:09;97191.88;;;9.48;100.00
3812;BME280;1921;49.368;11.068;2023-11-21T07:58:35;97259.00;;;9.97;100.00
3812;BME280;1921;49.368;11.068;2023-11-21T08:01:02;97242.56;;;9.96;100.00
3812;BME280;1921;49.368;11.068;2023-11-21T08:03:28;97187.47;;;9.63;100.00
3812;BME280;1921;49.368;11.068;2023-11-21T08:05:58;97225.28;;;10.10;100.00
3812;BME280;1921;49.368;11.068;2023-11-21T08:08:24;97232.09;;;10.26;100.00
3812;BME280;1921;49.368;11.068;2023-11-21T08:10:51;97211.06;;;10.28;100.00
3812;BME280;1921;49.368;11.068;2023-11-21T08:13:24;97261.22;;;10.72;100.00
3812;BME280;1921;49.368;11.068;2023-11-21T08:15:50;97237.06;;;10.85;100.00
3812;BME280;1921;49.368;11.068;2023-11-21T08:18:16;97205.34;;;10.82;100.00
3812;BME280;1921;49.368;11.068;2023-11-21T08:20:44;97259.13;;;11.32;100.00
3812;BME280;1921;49.368;11.068;2023-11-21T08:23:16;97264.47;;;11.52;100.00
3812;BME280;1921;49.368;11.068;2023-11-21T08:25:43;97273.72;;;11.54;100.00
3812;BME280;1921;49.368;11.068;2023-11-21T08:28:09;97232.28;;;11.17;100.00
3812;BME280;1921;49.368;11.068;2023-11-21T08:30:35;97258.31;;;11.31;100.00
3812;BME280;1921;49.368;11.068;2023-11-21T08:33:01;97200.44;;;10.93;100.00
3812;BME280;1921;49.368;11.068;2023-11-21T08:35:29;97232.94;;;11.19;100.00
3812;BME280;1921;49.368;11.068;2023-11-21T08:37:54;97271.81;;;11.42;100.00
3812;BME280;1921;49.368;11.068;2023-11-21T08:40:21;97272.63;;;11.42;100.00
3812;BME280;1921;49.368;11.068;2023-11-21T08:42:50;97200.84;;;10.97;100.00
3812;BME280;1921;49.368;11.068;2023-11-21T08:45:19;97226.03;;;11.11;100.00
3812;BME280;1921;49.368;11.068;2023-11-21T08:47:45;97262.44;;;11.47;100.00
3812;BME280;1921;49.368;11.068;2023-11-21T08:50:11;97193.31;;;11.09;100.00
3812;BME280;1921;49.368;11.068;2023-11-21T08:52:41;97282.66;;;11.73;100.00
3812;BME280;1921;49.368;11.068;2023-11-21T08:55:08;97236.31;;;11.47;100.00
3812;BME280;1921;49.368;11.068;2023-11-21T08:57:38;97227.34;;;11.56;100.00
3812;BME280;1921;49.368;11.068;2023-11-21T09:00:05;97269.63;;;11.80;99.73
3812;BME280;1921;49.368;11.068;2023-11-21T09:02:36;97278.28;;;11.74;98.06
3812;BME280;1921;49.368;11.068;2023-11-21T09:05:04;97284.88;;;11.70;97.42
3812;BME280;1921;49.368;11.068;2023-11-21T09:07:31;97250.72;;;11.37;96.75
3812;BME280;1921;49.368;11.068;2023-11-21T09:09:57;97243.69;;;11.37;97.00
3812;BME280;1921;49.368;11.068;2023-11-21T09:12:23;97239.41;;;11.29;95.95
3812;BME280;1921;49.368;11.068;2023-11-21T09:14:50;97308.00;;;11.45;94.88
3812;BME280;1921;49.368;11.068;2023-11-21T09:17:17;97290.09;;;11.42;93.98
3812;BME280;1921;49.368;11.068;2023-11-21T09:19:44;97230.34;;;10.97;93.68
3812;BME280;1921;49.368;11.068;2023-11-21T09:22:17;97318.88;;;11.48;94.00
3812;BME280;1921;49.368;11.068;2023-11-21T09:24:43;97230.97;;;10.99;94.27
3812;BME280;1921;49.368;11.068;2023-11-21T09:27:09;97307.63;;;11.48;94.47
3812;BME280;1921;49.368;11.068;2023-11-21T09:29:36;97288.16;;;11.50;95.32
3812;BME280;1921;49.368;11.068;2023-11-21T09:32:05;97287.88;;;11.39;94.56
3812;BME280;1921;49.368;11.068;2023-11-21T09:34:34;97299.16;;;11.74;94.17
3812;BME280;1921;49.368;11.068;2023-11-21T09:37:04;97284.56;;;11.86;93.25
3812;BME280;1921;49.368;11.068;2023-11-21T09:39:31;97326.00;;;12.24;92.56
3812;BME280;1921;49.368;11.068;2023-11-21T09:42:15;97295.19;;;12.12;92.86
3812;BME280;1921;49.368;11.068;2023-11-21T09:45:05;97300.22;;;12.21;91.26
3812;BME280;1921;49.368;11.068;2023-11-21T09:47:37;97325.16;;;12.23;91.38
3812;BME280;1921;49.368;11.068;2023-11-21T09:50:05;97289.69;;;12.01;91.56
3812;BME280;1921;49.368;11.068;2023-11-21T09:55:35;97311.66;;;12.13;90.22
3812;BME280;1921;49.368;11.068;2023-11-21T09:58:04;97287.09;;;12.07;90.16
3812;BME280;1921;49.368;11.068;2023-11-21T10:00:33;97312.97;;;12.37;91.05
3812;BME280;1921;49.368;11.068;2023-11-21T10:02:59;97244.06;;;12.03;90.86
3812;BME280;1921;49.368;11.068;2023-11-21T10:05:25;97260.03;;;12.28;90.90
3812;BME280;1921;49.368;11.068;2023-11-21T10:07:52;97268.53;;;12.37;90.21
3812;BME280;1921;49.368;11.068;2023-11-21T10:10:19;97285.22;;;12.36;86.88
3812;BME280;1921;49.368;11.068;2023-11-21T10:12:50;97284.81;;;12.39;86.89
3812;BME280;1921;49.368;11.068;2023-11-21T10:15:22;97266.50;;;12.39;86.33
3812;BME280;1921;49.368;11.068;2023-11-21T10:17:53;97311.59;;;12.48;84.62
3812;BME280;1921;49.368;11.068;2023-11-21T10:20:23;97329.25;;;12.39;85.04
3812;BME280;1921;49.368;11.068;2023-11-21T10:22:50;97320.38;;;12.27;85.40
3812;BME280;1921;49.368;11.068;2023-11-21T10:25:16;97292.03;;;12.30;87.14
3812;BME280;1921;49.368;11.068;2023-11-21T10:27:47;97321.72;;;12.71;85.84
3812;BME280;1921;49.368;11.068;2023-11-21T10:30:13;97229.13;;;12.52;86.75
3812;BME280;1921;49.368;11.068;2023-11-21T10:32:42;97309.13;;;13.40;82.73
3812;BME280;1921;49.368;11.068;2023-11-21T10:35:09;97258.97;;;13.37;83.39
3812;BME280;1921;49.368;11.068;2023-11-21T10:37:44;97287.53;;;13.71;83.08
3812;BME280;1921;49.368;11.068;2023-11-21T10:40:27;97279.72;;;13.38;78.44
3812;BME280;1921;49.368;11.068;2023-11-21T10:42:54;97288.19;;;13.27;77.18
3812;BME280;1921;49.368;11.068;2023-11-21T10:45:24;97265.78;;;12.91;78.90
3812;BME280;1921;49.368;11.068;2023-11-21T10:47:51;97303.06;;;13.13;80.52
3812;BME280;1921;49.368;11.068;2023-11-21T10:50:18;97307.66;;;12.85;79.85
3812;BME280;1921;49.368;11.068;2023-11-21T10:52:45;97296.56;;;12.76;81.47
3812;BME280;1921;49.368;11.068;2023-11-21T10:55:22;97260.72;;;12.57;83.10
3812;BME280;1921;49.368;11.068;2023-11-21T10:57:54;97332.22;;;12.84;82.27
3812;BME280;1921;49.368;11.068;2023-11-21T11:00:24;97332.63;;;12.81;82.06
3812;BME280;1921;49.368;11.068;2023-11-21T11:02:52;97287.59;;;12.31;79.85
3812;BME280;1921;49.368;11.068;2023-11-21T11:05:24;97316.03;;;12.60;80.98
3812;BME280;1921;49.368;11.068;2023-11-21T11:08:05;97302.78;;;10.95;84.08
3812;BME280;1921;49.368;11.068;2023-11-21T11:10:32;97287.06;;;10.67;88.71
3812;BME280;1921;49.368;11.068;2023-11-21T11:12:59;97329.13;;;10.43;90.33
3812;BME280;1921;49.368;11.068;2023-11-21T11:15:27;97288.09;;;10.01;92.44
3812;BME280;1921;49.368;11.068;2023-11-21T11:17:55;97338.31;;;10.24;92.12
3812;BME280;1921;49.368;11.068;2023-11-21T11:20:31;97305.25;;;10.10;92.80
3812;BME280;1921;49.368;11.068;2023-11-21T11:29:08;97306.56;;;10.71;88.25
3812;BME280;1921;49.368;11.068;2023-11-21T11:32:30;97340.91;;;10.09;93.48
3812;BME280;1921;49.368;11.068;2023-11-21T11:35:10;97284.53;;;9.57;95.88
3812;BME280;1921;49.368;11.068;2023-11-21T11:37:40;97294.00;;;10.24;94.58
3812;BME280;1921;49.368;11.068;2023-11-21T11:40:11;97286.78;;;9.75;92.19
3812;BME280;1921;49.368;11.068;2023-11-21T11:42:37;97318.81;;;10.35;93.15
3812;BME280;1921;49.368;11.068;2023-11-21T11:45:17;97293.16;;;10.74;90.41
3812;BME280;1921;49.368;11.068;2023-11-21T11:47:47;97289.50;;;10.90;87.80
3812;BME280;1921;49.368;11.068;2023-11-21T11:50:13;97319.97;;;11.11;88.38
3812;BME280;1921;49.368;11.068;2023-11-21T11:52:50;97345.22;;;11.53;86.00
3812;BME280;1921;49.368;11.068;2023-11-21T11:55:20;97263.34;;;11.33;84.79
3812;BME280;1921;49.368;11.068;2023-11-21T11:57:52;97326.25;;;11.94;83.80
3812;BME280;1921;49.368;11.068;2023-11-21T12:02:56;97299.88;;;11.61;82.99
3812;BME280;1921;49.368;11.068;2023-11-21T12:05:23;97288.28;;;11.70;82.50
3812;BME280;1921;49.368;11.068;2023-11-21T12:07:53;97314.63;;;12.03;82.53
3812;BME280;1921;49.368;11.068;2023-11-21T12:10:28;97328.72;;;12.09;81.53
3812;BME280;1921;49.368;11.068;2023-11-21T12:12:56;97347.50;;;12.26;81.37
3812;BME280;1921;49.368;11.068;2023-11-21T12:15:23;97333.31;;;12.00;82.04
3812;BME280;1921;49.368;11.068;2023-11-21T12:17:50;97348.28;;;12.20;82.25
3812;BME280;1921;49.368;11.068;2023-11-21T12:20:20;97330.69;;;12.00;82.15
3812;BME280;1921;49.368;11.068;2023-11-21T12:22:51;97320.97;;;11.88;82.28
3812;BME280;1921;49.368;11.068;2023-11-21T12:25:36;97321.25;;;11.99;83.24
3812;BME280;1921;49.368;11.068;2023-11-21T12:28:02;97317.25;;;12.10;84.26
3812;BME280;1921;49.368;11.068;2023-11-21T12:30:30;97302.38;;;12.10;83.65
3812;BME280;1921;49.368;11.068;2023-11-21T12:32:58;97302.38;;;12.10;84.01
3812;BME280;1921;49.368;11.068;2023-11-21T12:35:30;97128.78;;;10.96;82.34
3812;BME280;1921;49.368;11.068;2023-11-21T12:37:56;97339.41;;;12.14;82.67
3812;BME280;1921;49.368;11.068;2023-11-21T12:40:26;97371.75;;;12.06;79.30
3812;BME280;1921;49.368;11.068;2023-11-21T12:42:54;97323.44;;;11.40;81.27
3812;BME280;1921;49.368;11.068;2023-11-21T12:45:25;97359.69;;;11.49;81.31
3812;BME280;1921;49.368;11.068;2023-11-21T12:48:04;97374.63;;;11.62;81.11
3812;BME280;1921;49.368;11.068;2023-11-21T12:50:35;97339.88;;;11.12;81.36
3812;BME280;1921;49.368;11.068;2023-11-21T12:55:32;97317.34;;;10.47;86.30
3812;BME280;1921;49.368;11.068;2023-11-21T12:58:02;97378.47;;;10.81;86.17
3812;BME280;1921;49.368;11.068;2023-11-21T13:00:46;97312.50;;;10.44;86.18
3812;BME280;1921;49.368;11.068;2023-11-21T13:03:17;97367.41;;;11.15;85.22
3812;BME280;1921;49.368;11.068;2023-11-21T13:05:47;97345.78;;;11.21;84.67
3812;BME280;1921;49.368;11.068;2023-11-21T13:08:17;97346.47;;;11.08;84.76
3812;BME280;1921;49.368;11.068;2023-11-21T13:10:53;97337.75;;;10.79;86.80
3812;BME280;1921;49.368;11.068;2023-11-21T13:13:21;97375.78;;;11.10;86.80
3812;BME280;1921;49.368;11.068;2023-11-21T13:15:52;97354.09;;;11.10;84.85
3812;BME280;1921;49.368;11.068;2023-11-21T13:18:18;97336.00;;;10.87;86.59
3812;BME280;1921;49.368;11.068;2023-11-21T13:20:47;97355.28;;;11.07;84.40
3812;BME280;1921;49.368;11.068;2023-11-21T13:23:12;97348.50;;;10.91;86.85
3812;BME280;1921;49.368;11.068;2023-11-21T13:25:39;97344.94;;;10.77;86.64
3812;BME280;1921;49.368;11.068;2023-11-21T13:28:08;97349.88;;;10.87;86.61